sensor_id;sensor_type;location;lat;lon;timestamp;temperature;humidity
23114;DHT22;11726;50.122;8.832;2023-03-01T00:01:30;0.70;99.90
23114;DHT22;11726;50.122;8.832;2023-03-01T00:03:57;0.70;99.90
23114;DHT22;11726;50.122;8.832;2023-03-01T00:06:26;0.70;99.90
23114;DHT22;11726;50.122;8.832;2023-03-01T00:08:52;0.80;99.90
23114;DHT22;11726;50.122;8.832;2023-03-01T00:11:24;0.80;99.90
23114;DHT22;11726;50.122;8.832;2023-03-01T00:13:53;0.70;99.90
23114;DHT22;11726;50.122;8.832;2023-03-01T00:16:26;0.80;99.90
23114;DHT22;11726;50.122;8.832;2023-03-01T00:18:54;0.90;99.90
23114;DHT22;11726;50.122;8.832;2023-03-01T00:21:22;0.90;99.90
23114;DHT22;11726;50.122;8.832;2023-03-01T00:23:49;0.90;99.90
23114;DHT22;11726;50.122;8.832;2023-03-01T00:26:17;0.90;99.90
23114;DHT22;11726;50.122;8.832;2023-03-01T00:28:45;0.90;99.90
23114;DHT22;11726;50.122;8.832;2023-03-01T00:31:18;0.90;99.90
23114;DHT22;11726;50.122;8.832;2023-03-01T00:33:45;0.90;99.90
23114;DHT22;11726;50.122;8.832;2023-03-01T00:36:13;1.00;99.90
23114;DHT22;11726;50.122;8.832;2023-03-01T00:38:43;0.80;99.90
23114;DHT22;11726;50.122;8.832;2023-03-01T00:41:13;0.80;99.90
23114;DHT22;11726;50.122;8.832;2023-03-01T00:43:40;0.90;99.90
23114;DHT22;11726;50.122;8.832;2023-03-01T00:46:10;0.70;99.90
23114;DHT22;11726;50.122;8.832;2023-03-01T00:48:37;0.60;99.90
23114;DHT22;11726;50.122;8.832;2023-03-01T00:51:16;0.50;99.90
23114;DHT22;11726;50.122;8.832;2023-03-01T01:01:20;0.70;99.90
23114;DHT22;11726;50.122;8.832;2023-03-01T01:03:59;0.60;99.90
23114;DHT22;11726;50.122;8.832;2023-03-01T01:06:27;0.70;99.90
23114;DHT22;11726;50.122;8.832;2023-03-01T01:08:55;0.70;99.90
23114;DHT22;11726;50.122;8.832;2023-03-01T01:11:23;0.60;99.90
23114;DHT22;11726;50.122;8.832;2023-03-01T01:13:50;0.60;99.90
23114;DHT22;11726;50.122;8.832;2023-03-01T01:16:18;0.60;99.90
23114;DHT22;11726;50.122;8.832;2023-03-01T01:18:45;0.60;99.90
23114;DHT22;11726;50.122;8.832;2023-03-01T01:21:14;0.60;99.90
23114;DHT22;11726;50.122;8.832;2023-03-01T01:23:42;0.60;99.90
23114;DHT22;11726;50.122;8.832;2023-03-01T01:26:13;0.60;99.90
23114;DHT22;11726;50.122;8.832;2023-03-01T01:28:40;0.60;99.90
23114;DHT22;11726;50.122;8.832;2023-03-01T01:31:07;0.50;99.90
23114;DHT22;11726;50.122;8.832;2023-03-01T01:33:34;0.50;99.90
23114;DHT22;11726;50.122;8.832;2023-03-01T01:36:01;0.50;99.90
23114;DHT22;11726;50.122;8.832;2023-03-01T01:38:27;0.50;99.90
23114;DHT22;11726;50.122;8.832;2023-03-01T01:40:54;0.50;99.90
23114;DHT22;11726;50.122;8.832;2023-03-01T01:43:27;0.60;99.90
23114;DHT22;11726;50.122;8.832;2023-03-01T01:46:06;0.50;99.90
23114;DHT22;11726;50.122;8.832;2023-03-01T01:48:50;0.60;99.90
23114;DHT22;11726;50.122;8.832;2023-03-01T01:51:21;0.50;99.90
23114;DHT22;11726;50.122;8.832;2023-03-01T01:53:53;0.50;99.90
23114;DHT22;11726;50.122;8.832;2023-03-01T01:56:21;0.60;99.90
23114;DHT22;11726;50.122;8.832;2023-03-01T01:58:50;0.60;99.90
23114;DHT22;11726;50.122;8.832;2023-03-01T02:01:17;0.70;99.90
23114;DHT22;11726;50.122;8.832;2023-03-01T02:03:44;0.70;99.90
23114;DHT22;11726;50.122;8.832;2023-03-01T02:06:19;0.70;99.90
23114;DHT22;11726;50.122;8.832;2023-03-01T02:08:48;0.70;99.90
23114;DHT22;11726;50.122;8.832;2023-03-01T02:11:17;0.70;99.90
23114;DHT22;11726;50.122;8.832;2023-03-01T02:13:44;0.80;99.90
23114;DHT22;11726;50.122;8.832;2023-03-01T02:16:14;0.80;99.90
23114;DHT22;11726;50.122;8.832;2023-03-01T02:18:42;0.70;99.90
23114;DHT22;11726;50.122;8.832;2023-03-01T02:24:49;0.60;99.90
23114;DHT22;11726;50.122;8.832;2023-03-01T02:27:12;0.70;99.90
23114;DHT22;11726;50.122;8.832;2023-03-01T02:29:39;0.70;99.90
23114;DHT22;11726;50.122;8.832;2023-03-01T02:32:06;0.80;99.90
23114;DHT22;11726;50.122;8.832;2023-03-01T02:34:33;0.70;99.90
23114;DHT22;11726;50.122;8.832;2023-03-01T02:37:08;0.70;99.90
23114;DHT22;11726;50.122;8.832;2023-03-01T02:39:41;0.70;99.90
23114;DHT22;11726;50.122;8.832;2023-03-01T02:42:15;0.80;99.90
23114;DHT22;11726;50.122;8.832;2023-03-01T02:44:43;0.70;99.90
23114;DHT22;11726;50.122;8.832;2023-03-01T02:47:09;0.70;99.90
23114;DHT22;11726;50.122;8.832;2023-03-01T02:49:37;0.70;99.90
23114;DHT22;11726;50.122;8.832;2023-03-01T02:57:29;0.80;99.90
23114;DHT22;11726;50.122;8.832;2023-03-01T03:00:02;0.60;99.90
23114;DHT22;11726;50.122;8.832;2023-03-01T03:02:34;0.60;99.90
23114;DHT22;11726;50.122;8.832;2023-03-01T03:05:08;0.60;99.90
23114;DHT22;11726;50.122;8.832;2023-03-01T03:07:41;0.60;99.90
23114;DHT22;11726;50.122;8.832;2023-03-01T03:10:12;0.60;99.90
23114;DHT22;11726;50.122;8.832;2023-03-01T03:12:39;0.70;99.90
23114;DHT22;11726;50.122;8.832;2023-03-01T03:15:07;0.70;99.90
23114;DHT22;11726;50.122;8.832;2023-03-01T03:17:36;0.60;99.90
23114;DHT22;11726;50.122;8.832;2023-03-01T03:20:04;0.60;99.90
23114;DHT22;11726;50.122;8.832;2023-03-01T03:22:31;0.60;99.90
23114;DHT22;11726;50.122;8.832;2023-03-01T03:25:00;0.60;99.90
23114;DHT22;11726;50.122;8.832;2023-03-01T03:27:28;0.60;99.90
23114;DHT22;11726;50.122;8.832;2023-03-01T03:29:55;0.60;99.90
23114;DHT22;11726;50.122;8.832;2023-03-01T03:32:22;0.60;99.90
23114;DHT22;11726;50.122;8.832;2023-03-01T03:34:48;0.60;99.90
23114;DHT22;11726;50.122;8.832;2023-03-01T03:37:15;0.60;99.90
23114;DHT22;11726;50.122;8.832;2023-03-01T03:40:09;0.50;99.90
23114;DHT22;11726;50.122;8.832;2023-03-01T03:42:41;0.50;99.90
23114;DHT22;11726;50.122;8.832;2023-03-01T03:45:08;0.40;99.90
23114;DHT22;11726;50.122;8.832;2023-03-01T03:47:35;0.40;99.90
23114;DHT22;11726;50.122;8.832;2023-03-01T03:50:01;0.40;99.90
23114;DHT22;11726;50.122;8.832;2023-03-01T03:52:28;0.50;99.90
23114;DHT22;11726;50.122;8.832;2023-03-01T03:54:54;0.40;99.90
23114;DHT22;11726;50.122;8.832;2023-03-01T03:57:21;0.30;99.90
23114;DHT22;11726;50.122;8.832;2023-03-01T03:59:48;0.30;99.90
23114;DHT22;11726;50.122;8.832;2023-03-01T04:02:14;0.30;99.90
23114;DHT22;11726;50.122;8.832;2023-03-01T04:04:48;0.30;99.90
23114;DHT22;11726;50.122;8.832;2023-03-01T04:07:18;0.30;99.90
23114;DHT22;11726;50.122;8.832;2023-03-01T04:09:44;0.20;99.90
23114;DHT22;11726;50.122;8.832;2023-03-01T04:12:11;0.30;99.90
23114;DHT22;11726;50.122;8.832;2023-03-01T04:14:37;0.30;99.90
23114;DHT22;11726;50.122;8.832;2023-03-01T04:17:04;0.20;99.90
23114;DHT22;11726;50.122;8.832;2023-03-01T04:19:32;0.20;99.90
23114;DHT22;11726;50.122;8.832;2023-03-01T04:22:02;0.30;99.90
23114;DHT22;11726;50.122;8.832;2023-03-01T04:24:35;0.20;99.90
23114;DHT22;11726;50.122;8.832;2023-03-01T04:27:02;0.10;99.90
23114;DHT22;11726;50.122;8.832;2023-03-01T04:29:29;0.10;99.90
23114;DHT22;11726;50.122;8.832;2023-03-01T04:31:55;0.10;99.90
23114;DHT22;11726;50.122;8.832;2023-03-01T04:34:22;0.10;99.90
23114;DHT22;11726;50.122;8.832;2023-03-01T04:36:49;0.10;99.90
23114;DHT22;11726;50.122;8.832;2023-03-01T04:39:16;0.00;99.90
23114;DHT22;11726;50.122;8.832;2023-03-01T04:41:43;0.10;99.90
23114;DHT22;11726;50.122;8.832;2023-03-01T04:44:10;0.00;99.90
23114;DHT22;11726;50.122;8.832;2023-03-01T04:46:37;0.00;99.90
23114;DHT22;11726;50.122;8.832;2023-03-01T04:49:04;0.00;99.90
23114;DHT22;11726;50.122;8.832;2023-03-01T04:51:31;0.00;99.90
23114;DHT22;11726;50.122;8.832;2023-03-01T04:53:58;0.10;99.90
23114;DHT22;11726;50.122;8.832;2023-03-01T04:56:26;0.10;99.90
23114;DHT22;11726;50.122;8.832;2023-03-01T04:58:53;0.10;99.90
23114;DHT22;11726;50.122;8.832;2023-03-01T05:01:20;0.10;99.90
23114;DHT22;11726;50.122;8.832;2023-03-01T05:03:51;0.20;99.90
23114;DHT22;11726;50.122;8.832;2023-03-01T05:06:19;0.10;99.90
23114;DHT22;11726;50.122;8.832;2023-03-01T05:08:46;0.20;99.90
23114;DHT22;11726;50.122;8.832;2023-03-01T05:11:12;0.40;99.90
23114;DHT22;11726;50.122;8.832;2023-03-01T05:13:40;0.40;99.90
23114;DHT22;11726;50.122;8.832;2023-03-01T05:16:07;0.40;99.90
23114;DHT22;11726;50.122;8.832;2023-03-01T05:18:38;0.40;99.90
23114;DHT22;11726;50.122;8.832;2023-03-01T05:21:11;0.40;99.90
23114;DHT22;11726;50.122;8.832;2023-03-01T05:23:38;0.30;99.90
23114;DHT22;11726;50.122;8.832;2023-03-01T05:26:05;0.30;99.90
23114;DHT22;11726;50.122;8.832;2023-03-01T05:28:37;0.30;99.90
23114;DHT22;11726;50.122;8.832;2023-03-01T05:31:04;0.30;99.90
23114;DHT22;11726;50.122;8.832;2023-03-01T05:33:40;0.30;99.90
23114;DHT22;11726;50.122;8.832;2023-03-01T05:36:07;0.30;99.90
23114;DHT22;11726;50.122;8.832;2023-03-01T05:38:36;0.20;99.90
23114;DHT22;11726;50.122;8.832;2023-03-01T05:41:02;0.30;99.90
23114;DHT22;11726;50.122;8.832;2023-03-01T05:43:32;0.30;99.90
23114;DHT22;11726;50.122;8.832;2023-03-01T05:46:01;0.30;99.90
23114;DHT22;11726;50.122;8.832;2023-03-01T05:48:28;0.30;99.90
23114;DHT22;11726;50.122;8.832;2023-03-01T05:50:55;0.30;99.90
23114;DHT22;11726;50.122;8.832;2023-03-01T05:53:26;0.30;99.90
23114;DHT22;11726;50.122;8.832;2023-03-01T05:55:52;0.30;99.90
23114;DHT22;11726;50.122;8.832;2023-03-01T05:58:19;0.30;99.90
23114;DHT22;11726;50.122;8.832;2023-03-01T06:00:48;0.30;99.90
23114;DHT22;11726;50.122;8.832;2023-03-01T06:03:16;0.30;99.90
23114;DHT22;11726;50.122;8.832;2023-03-01T06:05:44;0.30;99.90
23114;DHT22;11726;50.122;8.832;2023-03-01T06:08:11;0.30;99.90
23114;DHT22;11726;50.122;8.832;2023-03-01T06:10:39;0.30;99.90
23114;DHT22;11726;50.122;8.832;2023-03-01T06:13:05;0.40;99.90
23114;DHT22;11726;50.122;8.832;2023-03-01T06:15:32;0.30;99.90
23114;DHT22;11726;50.122;8.832;2023-03-01T06:17:59;0.30;99.90
23114;DHT22;11726;50.122;8.832;2023-03-01T06:20:27;0.30;99.90
23114;DHT22;11726;50.122;8.832;2023-03-01T06:22:55;0.30;99.90
23114;DHT22;11726;50.122;8.832;2023-03-01T06:25:24;0.30;99.90
23114;DHT22;11726;50.122;8.832;2023-03-01T06:27:51;0.40;99.90
23114;DHT22;11726;50.122;8.832;2023-03-01T06:30:20;0.40;99.90
23114;DHT22;11726;50.122;8.832;2023-03-01T06:32:48;0.40;99.90
23114;DHT22;11726;50.122;8.832;2023-03-01T06:35:16;0.50;99.90
23114;DHT22;11726;50.122;8.832;2023-03-01T06:37:47;0.50;99.90
23114;DHT22;11726;50.122;8.832;2023-03-01T06:40:14;0.40;99.90
23114;DHT22;11726;50.122;8.832;2023-03-01T06:42:43;0.50;99.90
23114;DHT22;11726;50.122;8.832;2023-03-01T06:45:11;0.60;99.90
23114;DHT22;11726;50.122;8.832;2023-03-01T06:47:37;0.60;99.90
23114;DHT22;11726;50.122;8.832;2023-03-01T06:50:05;0.60;99.90
23114;DHT22;11726;50.122;8.832;2023-03-01T06:52:31;0.50;99.90
23114;DHT22;11726;50.122;8.832;2023-03-01T06:54:58;0.60;99.90
23114;DHT22;11726;50.122;8.832;2023-03-01T06:57:24;0.60;99.90
23114;DHT22;11726;50.122;8.832;2023-03-01T06:59:51;0.70;99.90
23114;DHT22;11726;50.122;8.832;2023-03-01T07:02:18;0.70;99.90
23114;DHT22;11726;50.122;8.832;2023-03-01T07:04:45;0.60;99.90
23114;DHT22;11726;50.122;8.832;2023-03-01T07:07:11;0.70;99.90
23114;DHT22;11726;50.122;8.832;2023-03-01T07:09:38;0.70;99.90
23114;DHT22;11726;50.122;8.832;2023-03-01T07:12:05;0.80;99.90
23114;DHT22;11726;50.122;8.832;2023-03-01T07:14:32;0.80;99.90
23114;DHT22;11726;50.122;8.832;2023-03-01T07:16:58;0.70;99.90
23114;DHT22;11726;50.122;8.832;2023-03-01T07:19:25;0.80;99.90
23114;DHT22;11726;50.122;8.832;2023-03-01T07:21:51;0.80;99.90
23114;DHT22;11726;50.122;8.832;2023-03-01T07:24:18;0.80;99.90
23114;DHT22;11726;50.122;8.832;2023-03-01T07:26:48;0.80;99.90
23114;DHT22;11726;50.122;8.832;2023-03-01T07:29:16;0.80;99.90
23114;DHT22;11726;50.122;8.832;2023-03-01T07:31:43;0.80;99.90
23114;DHT22;11726;50.122;8.832;2023-03-01T07:34:10;0.80;99.90
23114;DHT22;11726;50.122;8.832;2023-03-01T07:36:37;0.90;99.90
23114;DHT22;11726;50.122;8.832;2023-03-01T07:39:05;0.80;99.90
23114;DHT22;11726;50.122;8.832;2023-03-01T07:41:32;0.90;99.90
23114;DHT22;11726;50.122;8.832;2023-03-01T07:43:59;0.90;99.90
23114;DHT22;11726;50.122;8.832;2023-03-01T07:46:25;0.90;99.90
23114;DHT22;11726;50.122;8.832;2023-03-01T07:48:52;0.90;99.90
23114;DHT22;11726;50.122;8.832;2023-03-01T07:51:19;0.90;99.90
23114;DHT22;11726;50.122;8.832;2023-03-01T07:53:47;1.00;99.90
23114;DHT22;11726;50.122;8.832;2023-03-01T07:56:15;1.00;99.90
23114;DHT22;11726;50.122;8.832;2023-03-01T07:58:44;1.10;99.90
23114;DHT22;11726;50.122;8.832;2023-03-01T08:01:16;1.20;99.90
23114;DHT22;11726;50.122;8.832;2023-03-01T08:03:43;1.30;99.90
23114;DHT22;11726;50.122;8.832;2023-03-01T08:06:12;1.30;99.90
23114;DHT22;11726;50.122;8.832;2023-03-01T08:08:39;1.50;99.90
23114;DHT22;11726;50.122;8.832;2023-03-01T08:11:08;1.50;99.90
23114;DHT22;11726;50.122;8.832;2023-03-01T08:13:36;1.70;99.90
23114;DHT22;11726;50.122;8.832;2023-03-01T08:16:11;1.80;99.90
23114;DHT22;11726;50.122;8.832;2023-03-01T08:18:39;1.90;99.90
23114;DHT22;11726;50.122;8.832;2023-03-01T08:21:14;2.00;99.90
23114;DHT22;11726;50.122;8.832;2023-03-01T08:23:41;2.00;99.90
23114;DHT22;11726;50.122;8.832;2023-03-01T08:26:11;2.30;99.90
23114;DHT22;11726;50.122;8.832;2023-03-01T08:28:39;2.20;99.90
23114;DHT22;11726;50.122;8.832;2023-03-01T08:31:23;2.40;99.90
23114;DHT22;11726;50.122;8.832;2023-03-01T08:33:53;2.50;99.90
23114;DHT22;11726;50.122;8.832;2023-03-01T08:36:25;2.50;99.90
23114;DHT22;11726;50.122;8.832;2023-03-01T08:38:51;2.60;99.90
23114;DHT22;11726;50.122;8.832;2023-03-01T08:41:18;2.90;99.90
23114;DHT22;11726;50.122;8.832;2023-03-01T08:43:45;2.80;99.90
23114;DHT22;11726;50.122;8.832;2023-03-01T08:46:13;2.90;99.90
23114;DHT22;11726;50.122;8.832;2023-03-01T08:48:39;3.00;99.90
23114;DHT22;11726;50.122;8.832;2023-03-01T08:51:13;3.10;99.90
23114;DHT22;11726;50.122;8.832;2023-03-01T08:53:40;3.20;99.90
23114;DHT22;11726;50.122;8.832;2023-03-01T08:56:08;3.00;99.90
23114;DHT22;11726;50.122;8.832;2023-03-01T08:58:35;3.20;99.90
23114;DHT22;11726;50.122;8.832;2023-03-01T09:01:07;3.20;99.90
23114;DHT22;11726;50.122;8.832;2023-03-01T09:03:35;3.10;99.90
23114;DHT22;11726;50.122;8.832;2023-03-01T09:06:03;3.20;99.90
23114;DHT22;11726;50.122;8.832;2023-03-01T09:08:31;3.40;99.90
23114;DHT22;11726;50.122;8.832;2023-03-01T09:11:02;3.20;99.90
23114;DHT22;11726;50.122;8.832;2023-03-01T09:13:29;3.00;99.90
23114;DHT22;11726;50.122;8.832;2023-03-01T09:16:01;3.00;99.90
23114;DHT22;11726;50.122;8.832;2023-03-01T09:18:28;3.20;99.90
23114;DHT22;11726;50.122;8.832;2023-03-01T09:21:06;3.20;99.90
23114;DHT22;11726;50.122;8.832;2023-03-01T09:23:35;3.20;99.90
23114;DHT22;11726;50.122;8.832;2023-03-01T09:26:03;3.40;99.90
23114;DHT22;11726;50.122;8.832;2023-03-01T09:28:29;3.60;99.90
23114;DHT22;11726;50.122;8.832;2023-03-01T09:31:00;3.80;99.90
23114;DHT22;11726;50.122;8.832;2023-03-01T09:33:28;3.90;99.90
23114;DHT22;11726;50.122;8.832;2023-03-01T09:36:03;4.10;99.90
23114;DHT22;11726;50.122;8.832;2023-03-01T09:38:30;4.20;99.90
23114;DHT22;11726;50.122;8.832;2023-03-01T09:40:57;4.50;99.90
23114;DHT22;11726;50.122;8.832;2023-03-01T09:43:39;4.50;99.90
23114;DHT22;11726;50.122;8.832;2023-03-01T09:46:10;4.50;99.90
23114;DHT22;11726;50.122;8.832;2023-03-01T09:49:04;4.60;99.90
23114;DHT22;11726;50.122;8.832;2023-03-01T09:51:34;4.90;99.90
23114;DHT22;11726;50.122;8.832;2023-03-01T09:54:02;4.90;99.90
23114;DHT22;11726;50.122;8.832;2023-03-01T09:56:35;4.90;99.90
23114;DHT22;11726;50.122;8.832;2023-03-01T09:59:23;4.90;99.90
23114;DHT22;11726;50.122;8.832;2023-03-01T10:02:55;4.90;99.90
23114;DHT22;11726;50.122;8.832;2023-03-01T10:05:04;4.80;99.90
23114;DHT22;11726;50.122;8.832;2023-03-01T10:07:46;5.10;99.90
23114;DHT22;11726;50.122;8.832;2023-03-01T10:10:28;5.20;99.90
23114;DHT22;11726;50.122;8.832;2023-03-01T10:13:00;5.40;99.90
23114;DHT22;11726;50.122;8.832;2023-03-01T10:15:35;5.40;99.90
23114;DHT22;11726;50.122;8.832;2023-03-01T10:18:12;5.60;99.90
23114;DHT22;11726;50.122;8.832;2023-03-01T10:21:02;5.80;99.90
23114;DHT22;11726;50.122;8.832;2023-03-01T10:23:32;5.80;99.90
23114;DHT22;11726;50.122;8.832;2023-03-01T10:29:13;6.00;99.40
23114;DHT22;11726;50.122;8.832;2023-03-01T10:31:48;6.30;98.70
23114;DHT22;11726;50.122;8.832;2023-03-01T10:34:16;6.20;97.70
23114;DHT22;11726;50.122;8.832;2023-03-01T10:36:48;6.20;97.30
23114;DHT22;11726;50.122;8.832;2023-03-01T10:39:18;6.10;97.20
23114;DHT22;11726;50.122;8.832;2023-03-01T10:44:44;6.20;97.90
23114;DHT22;11726;50.122;8.832;2023-03-01T10:47:40;6.40;97.70
23114;DHT22;11726;50.122;8.832;2023-03-01T10:50:20;6.50;97.80
23114;DHT22;11726;50.122;8.832;2023-03-01T10:53:01;6.50;97.60
23114;DHT22;11726;50.122;8.832;2023-03-01T10:55:35;6.70;97.60
23114;DHT22;11726;50.122;8.832;2023-03-01T11:00:33;6.80;95.70
23114;DHT22;11726;50.122;8.832;2023-03-01T11:03:13;6.80;96.00
23114;DHT22;11726;50.122;8.832;2023-03-01T11:05:55;7.00;96.90
23114;DHT22;11726;50.122;8.832;2023-03-01T11:13:47;7.30;95.10
23114;DHT22;11726;50.122;8.832;2023-03-01T11:16:23;7.50;93.40
23114;DHT22;11726;50.122;8.832;2023-03-01T11:19:04;7.60;94.00
23114;DHT22;11726;50.122;8.832;2023-03-01T11:21:32;7.70;94.10
23114;DHT22;11726;50.122;8.832;2023-03-01T11:24:01;7.90;93.50
23114;DHT22;11726;50.122;8.832;2023-03-01T11:26:31;7.90;92.80
23114;DHT22;11726;50.122;8.832;2023-03-01T11:29:05;7.90;92.50
23114;DHT22;11726;50.122;8.832;2023-03-01T11:31:34;8.20;93.40
23114;DHT22;11726;50.122;8.832;2023-03-01T11:34:29;8.30;91.70
23114;DHT22;11726;50.122;8.832;2023-03-01T11:37:02;8.40;91.80
23114;DHT22;11726;50.122;8.832;2023-03-01T11:42:46;8.80;89.60
23114;DHT22;11726;50.122;8.832;2023-03-01T11:45:14;8.50;89.50
23114;DHT22;11726;50.122;8.832;2023-03-01T11:47:56;8.40;88.60
23114;DHT22;11726;50.122;8.832;2023-03-01T11:50:45;8.50;87.60
23114;DHT22;11726;50.122;8.832;2023-03-01T12:18:58;8.70;86.80
23114;DHT22;11726;50.122;8.832;2023-03-01T12:27:39;9.20;85.50
23114;DHT22;11726;50.122;8.832;2023-03-01T12:35:54;9.10;84.90
23114;DHT22;11726;50.122;8.832;2023-03-01T12:44:11;9.50;82.40
23114;DHT22;11726;50.122;8.832;2023-03-01T12:49:16;9.50;80.10
23114;DHT22;11726;50.122;8.832;2023-03-01T12:52:02;9.70;80.00
23114;DHT22;11726;50.122;8.832;2023-03-01T12:54:33;9.70;80.20
23114;DHT22;11726;50.122;8.832;2023-03-01T13:00:32;9.80;78.50
23114;DHT22;11726;50.122;8.832;2023-03-01T13:03:24;9.90;77.70
23114;DHT22;11726;50.122;8.832;2023-03-01T13:09:04;10.30;76.90
23114;DHT22;11726;50.122;8.832;2023-03-01T13:11:31;11.10;72.90
23114;DHT22;11726;50.122;8.832;2023-03-01T13:16:48;10.20;74.00
23114;DHT22;11726;50.122;8.832;2023-03-01T13:21:45;10.40;72.90
23114;DHT22;11726;50.122;8.832;2023-03-01T13:24:38;10.70;72.70
23114;DHT22;11726;50.122;8.832;2023-03-01T13:29:55;10.80;72.40
23114;DHT22;11726;50.122;8.832;2023-03-01T13:32:29;10.90;70.70
23114;DHT22;11726;50.122;8.832;2023-03-01T13:37:46;11.20;70.80
23114;DHT22;11726;50.122;8.832;2023-03-01T13:42:46;11.00;70.80
23114;DHT22;11726;50.122;8.832;2023-03-01T13:45:42;11.20;69.30
23114;DHT22;11726;50.122;8.832;2023-03-01T13:48:22;11.20;70.60
23114;DHT22;11726;50.122;8.832;2023-03-01T13:51:02;11.10;70.20
23114;DHT22;11726;50.122;8.832;2023-03-01T13:53:33;11.00;69.90
23114;DHT22;11726;50.122;8.832;2023-03-01T13:56:06;11.10;69.40
23114;DHT22;11726;50.122;8.832;2023-03-01T13:58:44;11.80;68.30
23114;DHT22;11726;50.122;8.832;2023-03-01T14:01:33;12.40;65.70
23114;DHT22;11726;50.122;8.832;2023-03-01T14:04:02;12.40;64.90
23114;DHT22;11726;50.122;8.832;2023-03-01T14:06:32;12.00;66.30
23114;DHT22;11726;50.122;8.832;2023-03-01T14:09:20;11.80;66.60
23114;DHT22;11726;50.122;8.832;2023-03-01T14:20:43;12.00;65.10
23114;DHT22;11726;50.122;8.832;2023-03-01T14:23:20;12.00;64.40
23114;DHT22;11726;50.122;8.832;2023-03-01T14:25:55;11.80;65.50
23114;DHT22;11726;50.122;8.832;2023-03-01T14:28:30;11.70;66.40
23114;DHT22;11726;50.122;8.832;2023-03-01T14:31:00;11.80;67.20
23114;DHT22;11726;50.122;8.832;2023-03-01T14:33:35;11.40;66.60
23114;DHT22;11726;50.122;8.832;2023-03-01T14:36:09;11.40;67.60
23114;DHT22;11726;50.122;8.832;2023-03-01T14:38:42;11.10;67.10
23114;DHT22;11726;50.122;8.832;2023-03-01T14:41:19;10.90;67.30
23114;DHT22;11726;50.122;8.832;2023-03-01T14:43:55;10.60;69.20
23114;DHT22;11726;50.122;8.832;2023-03-01T14:46:30;10.70;69.60
23114;DHT22;11726;50.122;8.832;2023-03-01T14:49:20;10.60;69.00
23114;DHT22;11726;50.122;8.832;2023-03-01T14:52:03;10.40;69.90
23114;DHT22;11726;50.122;8.832;2023-03-01T14:54:46;10.20;69.60
23114;DHT22;11726;50.122;8.832;2023-03-01T14:57:25;10.30;70.50
23114;DHT22;11726;50.122;8.832;2023-03-01T14:59:54;10.30;70.50
23114;DHT22;11726;50.122;8.832;2023-03-01T15:02:24;10.20;70.60
23114;DHT22;11726;50.122;8.832;2023-03-01T15:04:54;10.20;70.70
23114;DHT22;11726;50.122;8.832;2023-03-01T15:07:30;10.10;72.10
23114;DHT22;11726;50.122;8.832;2023-03-01T15:09:59;10.00;72.10
23114;DHT22;11726;50.122;8.832;2023-03-01T15:14:56;10.40;72.50
23114;DHT22;11726;50.122;8.832;2023-03-01T15:17:37;10.90;71.20
23114;DHT22;11726;50.122;8.832;2023-03-01T15:20:13;11.30;69.30
23114;DHT22;11726;50.122;8.832;2023-03-01T15:22:46;11.80;67.90
23114;DHT22;11726;50.122;8.832;2023-03-01T15:25:26;12.30;66.20
23114;DHT22;11726;50.122;8.832;2023-03-01T15:27:54;12.00;66.80
23114;DHT22;11726;50.122;8.832;2023-03-01T15:30:24;11.80;66.80
23114;DHT22;11726;50.122;8.832;2023-03-01T15:35:48;11.70;66.80
23114;DHT22;11726;50.122;8.832;2023-03-01T15:38:31;11.40;66.70
23114;DHT22;11726;50.122;8.832;2023-03-01T15:41:00;11.40;67.50
23114;DHT22;11726;50.122;8.832;2023-03-01T15:43:46;11.30;67.50
23114;DHT22;11726;50.122;8.832;2023-03-01T15:46:33;10.90;68.60
23114;DHT22;11726;50.122;8.832;2023-03-01T15:49:03;10.90;69.20
23114;DHT22;11726;50.122;8.832;2023-03-01T15:51:36;10.70;69.40
23114;DHT22;11726;50.122;8.832;2023-03-01T15:54:18;10.80;69.60
23114;DHT22;11726;50.122;8.832;2023-03-01T15:56:46;10.70;69.90
23114;DHT22;11726;50.122;8.832;2023-03-01T15:59:13;10.50;70.50
23114;DHT22;11726;50.122;8.832;2023-03-01T16:01:41;10.30;70.90
23114;DHT22;11726;50.122;8.832;2023-03-01T16:04:12;10.00;71.50
23114;DHT22;11726;50.122;8.832;2023-03-01T16:06:42;10.10;72.30
23114;DHT22;11726;50.122;8.832;2023-03-01T16:09:09;9.80;73.00
23114;DHT22;11726;50.122;8.832;2023-03-01T16:11:36;9.60;73.60
23114;DHT22;11726;50.122;8.832;2023-03-01T16:14:04;9.50;74.70
23114;DHT22;11726;50.122;8.832;2023-03-01T16:16:31;9.20;74.90
23114;DHT22;11726;50.122;8.832;2023-03-01T16:18:58;9.10;75.80
23114;DHT22;11726;50.122;8.832;2023-03-01T16:21:25;8.90;76.20
23114;DHT22;11726;50.122;8.832;2023-03-01T16:23:52;8.70;76.90
23114;DHT22;11726;50.122;8.832;2023-03-01T16:26:19;8.60;77.80
23114;DHT22;11726;50.122;8.832;2023-03-01T16:28:47;8.40;78.50
23114;DHT22;11726;50.122;8.832;2023-03-01T16:31:18;8.30;79.00
23114;DHT22;11726;50.122;8.832;2023-03-01T16:33:46;8.10;79.20
23114;DHT22;11726;50.122;8.832;2023-03-01T16:36:18;7.90;80.00
23114;DHT22;11726;50.122;8.832;2023-03-01T16:38:45;7.80;80.90
23114;DHT22;11726;50.122;8.832;2023-03-01T16:41:14;7.80;81.60
23114;DHT22;11726;50.122;8.832;2023-03-01T16:43:41;7.70;81.70
23114;DHT22;11726;50.122;8.832;2023-03-01T16:46:20;7.60;82.10
23114;DHT22;11726;50.122;8.832;2023-03-01T16:48:48;7.60;82.90
23114;DHT22;11726;50.122;8.832;2023-03-01T16:51:15;7.50;83.20
23114;DHT22;11726;50.122;8.832;2023-03-01T16:53:42;7.40;83.80
23114;DHT22;11726;50.122;8.832;2023-03-01T16:56:12;7.40;84.80
23114;DHT22;11726;50.122;8.832;2023-03-01T16:58:40;7.30;85.30
23114;DHT22;11726;50.122;8.832;2023-03-01T17:01:18;7.20;85.70
23114;DHT22;11726;50.122;8.832;2023-03-01T17:03:46;7.20;86.10
23114;DHT22;11726;50.122;8.832;2023-03-01T17:06:17;7.00;86.90
23114;DHT22;11726;50.122;8.832;2023-03-01T17:08:44;7.00;87.50
23114;DHT22;11726;50.122;8.832;2023-03-01T17:11:13;6.90;88.10
23114;DHT22;11726;50.122;8.832;2023-03-01T17:13:40;6.80;88.60
23114;DHT22;11726;50.122;8.832;2023-03-01T17:16:10;6.80;88.90
23114;DHT22;11726;50.122;8.832;2023-03-01T17:18:37;6.70;89.60
23114;DHT22;11726;50.122;8.832;2023-03-01T17:21:05;6.70;89.70
23114;DHT22;11726;50.122;8.832;2023-03-01T17:23:33;6.60;90.10
23114;DHT22;11726;50.122;8.832;2023-03-01T17:26:00;6.50;90.30
23114;DHT22;11726;50.122;8.832;2023-03-01T17:28:29;6.50;90.30
23114;DHT22;11726;50.122;8.832;2023-03-01T17:30:58;6.40;90.50
23114;DHT22;11726;50.122;8.832;2023-03-01T17:33:26;6.40;90.70
23114;DHT22;11726;50.122;8.832;2023-03-01T17:35:53;6.40;90.90
23114;DHT22;11726;50.122;8.832;2023-03-01T17:38:19;6.30;91.00
23114;DHT22;11726;50.122;8.832;2023-03-01T17:40:46;6.20;91.30
23114;DHT22;11726;50.122;8.832;2023-03-01T17:43:15;6.10;91.50
23114;DHT22;11726;50.122;8.832;2023-03-01T17:45:43;6.10;92.80
23114;DHT22;11726;50.122;8.832;2023-03-01T17:48:15;6.10;91.90
23114;DHT22;11726;50.122;8.832;2023-03-01T17:50:42;6.00;91.90
23114;DHT22;11726;50.122;8.832;2023-03-01T17:53:09;5.90;92.30
23114;DHT22;11726;50.122;8.832;2023-03-01T17:55:38;5.80;92.30
23114;DHT22;11726;50.122;8.832;2023-03-01T17:58:06;5.90;92.20
23114;DHT22;11726;50.122;8.832;2023-03-01T18:00:33;5.90;92.30